Time;durP1;ratioP1;P1;durP2;ratioP2;P2;SDS_P1;SDS_P2;PMS_P1;PMS_P2;Temp;Humidity;BMP_temperature;BMP_pressure;BME280_temperature;BME280_humidity;BME280_pressure;Samples;Min_cycle;Max_cycle;Signal;HPM_P1;HPM_P2
2021/01/01 00:01:46;;;;;;;15.13;6.80;;;4.90;1.00;;;;;;5051007;28;20749;-74
2021/01/01 00:04:14;;;;;;;10.45;5.65;;;4.80;1.00;;;;;;5054545;28;20164;-74
2021/01/01 00:06:46;;;;;;;12.95;7.38;;;4.90;1.00;;;;;;5054893;28;20183;-75
2021/01/01 00:09:20;;;;;;;13.85;8.02;;;4.80;1.00;;;;;;5048416;28;20172;-74
2021/01/01 00:11:50;;;;;;;12.40;7.25;;;4.90;1.00;;;;;;5034735;28;20220;-74
2021/01/01 00:14:20;;;;;;;14.77;8.38;;;5.00;1.00;;;;;;5034519;28;20305;-74
2021/01/01 00:16:50;;;;;;;15.50;7.70;;;5.00;1.00;;;;;;5051479;28;20500;-74
2021/01/01 00:19:15;;;;;;;16.08;7.88;;;5.00;1.00;;;;;;5049442;28;20200;-74
2021/01/01 00:22:28;;;;;;;14.33;7.47;;;5.00;1.00;;;;;;5038152;28;20202;-77
2021/01/01 00:25:03;;;;;;;12.73;6.05;;;4.90;1.00;;;;;;5036061;28;20551;-77
2021/01/01 00:27:49;;;;;;;15.32;6.40;;;4.90;1.00;;;;;;5034164;28;20211;-78
2021/01/01 00:30:15;;;;;;;10.20;5.85;;;4.90;1.00;;;;;;5036978;28;20207;-77
2021/01/01 00:32:43;;;;;;;9.77;5.97;;;4.90;1.00;;;;;;5053606;28;20168;-77
2021/01/01 00:35:21;;;;;;;13.13;5.80;;;4.90;1.00;;;;;;5051503;28;20254;-77
2021/01/01 00:37:46;;;;;;;10.82;6.00;;;4.90;1.00;;;;;;5043622;28;20175;-74
2021/01/01 00:40:14;;;;;;;13.93;6.73;;;4.90;1.00;;;;;;5036189;28;20521;-73
2021/01/01 00:42:40;;;;;;;9.30;5.80;;;4.90;1.00;;;;;;5052820;28;20211;-74
2021/01/01 00:45:07;;;;;;;14.03;6.47;;;4.80;1.00;;;;;;5051904;28;20199;-73
2021/01/01 00:47:33;;;;;;;14.80;7.03;;;4.80;1.00;;;;;;5045075;28;20472;-73
2021/01/01 00:49:58;;;;;;;10.20;5.80;;;4.90;1.00;;;;;;5044005;28;20237;-73
2021/01/01 00:52:25;;;;;;;15.77;6.33;;;4.90;1.00;;;;;;5047976;28;20191;-74
2021/01/01 00:54:51;;;;;;;13.32;7.05;;;;;;;;;;5048078;28;20410;-74
2021/01/01 00:57:17;;;;;;;12.00;5.82;;;4.90;1.00;;;;;;5041111;28;20177;-74
2021/01/01 00:59:43;;;;;;;15.83;7.00;;;;;;;;;;5051899;28;20278;-73
2021/01/01 01:02:20;;;;;;;15.93;7.00;;;4.80;1.00;;;;;;5053756;28;20304;-73
2021/01/01 01:04:50;;;;;;;11.75;6.00;;;4.90;1.00;;;;;;5051037;28;20403;-74
2021/01/01 01:07:16;;;;;;;13.60;7.20;;;4.90;1.00;;;;;;5034272;28;20161;-74
2021/01/01 01:09:42;;;;;;;14.60;7.03;;;4.90;1.00;;;;;;5049190;28;20183;-74
2021/01/01 01:12:09;;;;;;;10.50;6.30;;;4.80;1.00;;;;;;5033821;28;20435;-74
2021/01/01 01:14:35;;;;;;;12.23;6.60;;;4.80;1.00;;;;;;5033810;28;20153;-74
2021/01/01 01:17:08;;;;;;;15.70;6.30;;;4.80;1.00;;;;;;5044511;28;20171;-73
2021/01/01 01:19:38;;;;;;;13.00;6.80;;;4.90;1.00;;;;;;5049491;28;20618;-74
2021/01/01 01:22:04;;;;;;;14.20;6.75;;;4.80;1.00;;;;;;5035899;28;20754;-74
2021/01/01 01:24:30;;;;;;;18.85;7.00;;;4.90;1.00;;;;;;5036942;28;20203;-74
2021/01/01 01:26:56;;;;;;;15.83;6.67;;;;;;;;;;5043208;28;20267;-74
2021/01/01 01:29:22;;;;;;;15.23;6.53;;;;;;;;;;5053321;28;20398;-74
2021/01/01 01:31:50;;;;;;;10.93;6.80;;;;;;;;;;5037416;28;20289;-74
2021/01/01 01:34:20;;;;;;;15.05;7.60;;;4.90;1.00;;;;;;5045419;28;20422;-73
2021/01/01 01:36:50;;;;;;;15.60;7.20;;;;;;;;;;5047421;28;20176;-73
2021/01/01 01:39:16;;;;;;;13.20;7.15;;;;;;;;;;5048170;28;20179;-74
2021/01/01 01:41:43;;;;;;;15.23;6.95;;;;;;;;;;5039791;28;20601;-75
2021/01/01 01:44:20;;;;;;;12.90;6.63;;;4.80;1.00;;;;;;5032173;28;20184;-74
2021/01/01 01:46:46;;;;;;;14.93;7.82;;;4.80;1.00;;;;;;5038077;28;20282;-74
2021/01/01 01:49:16;;;;;;;12.57;7.73;;;4.80;1.00;;;;;;5045307;28;20589;-74
2021/01/01 01:51:45;;;;;;;22.23;8.85;;;4.80;1.00;;;;;;5042242;28;20474;-77
2021/01/01 01:54:16;;;;;;;17.63;7.75;;;4.80;1.00;;;;;;5049593;28;20185;-78
2021/01/01 01:56:46;;;;;;;14.43;7.47;;;4.80;1.00;;;;;;5046657;28;20161;-79
2021/01/01 01:59:26;;;;;;;19.00;8.27;;;4.80;1.00;;;;;;5037347;28;20205;-79
2021/01/01 02:01:56;;;;;;;17.02;7.88;;;4.80;1.00;;;;;;5046695;28;20267;-78
2021/01/01 02:04:22;;;;;;;20.35;9.13;;;4.80;1.00;;;;;;5046917;28;20195;-78
2021/01/01 02:07:03;;;;;;;16.60;8.27;;;4.80;1.00;;;;;;5035861;28;20176;-75
2021/01/01 02:09:32;;;;;;;20.17;8.05;;;4.80;1.00;;;;;;5040945;28;20202;-75
2021/01/01 02:12:08;;;;;;;15.30;7.68;;;4.80;1.00;;;;;;5044936;28;20672;-74
2021/01/01 02:14:39;;;;;;;19.15;8.05;;;4.80;1.00;;;;;;5054461;28;20258;-74
2021/01/01 02:17:20;;;;;;;25.20;8.60;;;4.70;1.00;;;;;;5051521;28;20167;-75
2021/01/01 02:20:03;;;;;;;16.90;8.63;;;4.70;1.00;;;;;;5050827;28;20168;-74
2021/01/01 02:25:50;;;;;;;19.27;7.93;;;4.70;1.00;;;;;;5048970;28;20591;-78
2021/01/01 02:28:20;;;;;;;17.43;8.83;;;4.70;1.00;;;;;;5036408;28;20160;-78
2021/01/01 02:30:50;;;;;;;19.75;8.95;;;4.70;1.00;;;;;;5039425;28;20204;-78
2021/01/01 02:33:55;;;;;;;26.83;10.30;;;4.70;1.00;;;;;;5036150;28;20640;-78
2021/01/01 02:36:43;;;;;;;21.20;8.52;;;4.60;1.00;;;;;;5053621;28;20262;-79
2021/01/01 02:39:20;;;;;;;22.48;8.30;;;4.60;1.00;;;;;;5056422;28;20215;-78
2021/01/01 02:42:02;;;;;;;22.48;9.15;;;4.70;1.00;;;;;;5055553;28;20630;-78
2021/01/01 02:44:32;;;;;;;16.95;8.43;;;4.70;1.00;;;;;;5050333;28;20216;-78
2021/01/01 02:47:03;;;;;;;18.30;8.77;;;4.70;1.00;;;;;;5039369;28;20185;-78
2021/01/01 02:49:49;;;;;;;21.20;9.27;;;4.70;1.00;;;;;;5036168;28;20171;-78
2021/01/01 02:52:16;;;;;;;24.35;9.20;;;4.80;1.00;;;;;;5041616;28;20187;-77
2021/01/01 02:54:44;;;;;;;19.95;8.63;;;4.80;1.00;;;;;;5036754;28;20188;-78
2021/01/01 02:57:38;;;;;;;19.27;9.90;;;4.70;1.00;;;;;;5033356;28;20191;-78
2021/01/01 03:00:14;;;;;;;16.42;8.93;;;4.70;1.00;;;;;;5036431;28;20561;-78
2021/01/01 03:03:31;;;;;;;19.25;8.63;;;4.80;1.00;;;;;;5035639;28;20184;-78
2021/01/01 03:06:20;;;;;;;19.08;9.35;;;4.80;1.00;;;;;;5051295;28;20208;-78
2021/01/01 03:09:07;;;;;;;22.88;10.43;;;4.80;1.00;;;;;;5053890;28;20172;-78
2021/01/01 03:11:33;;;;;;;22.10;10.10;;;4.80;1.00;;;;;;5055600;28;20194;-78
2021/01/01 03:14:08;;;;;;;20.67;9.23;;;4.70;1.00;;;;;;5053930;28;20168;-78
2021/01/01 03:16:44;;;;;;;22.25;9.55;;;4.70;1.00;;;;;;5049843;28;20631;-78
2021/01/01 03:19:49;;;;;;;17.95;8.75;;;4.70;1.00;;;;;;5042378;28;20176;-78
2021/01/01 03:22:55;;;;;;;18.15;9.02;;;4.70;1.00;;;;;;5035445;28;20160;-78
2021/01/01 03:25:38;;;;;;;16.52;8.95;;;4.70;1.00;;;;;;5034256;28;20180;-78
2021/01/01 03:28:15;;;;;;;18.13;9.55;;;4.70;1.00;;;;;;5054179;28;20250;-78
2021/01/01 03:31:02;;;;;;;24.25;8.95;;;4.70;1.00;;;;;;5045462;28;20196;-79
2021/01/01 03:33:44;;;;;;;20.88;8.02;;;4.70;1.00;;;;;;5048134;28;20234;-78
2021/01/01 03:36:20;;;;;;;18.95;7.63;;;4.60;1.00;;;;;;5034909;28;20191;-78
2021/01/01 03:39:08;;;;;;;19.80;9.38;;;4.60;1.00;;;;;;5045601;28;20191;-78
2021/01/01 03:41:50;;;;;;;15.82;7.70;;;4.60;1.00;;;;;;5054810;28;20164;-78
2021/01/01 03:48:02;;;;;;;20.42;8.38;;;4.60;1.00;;;;;;5036676;28;20261;-78
2021/01/01 03:50:32;;;;;;;15.52;8.10;;;4.60;1.00;;;;;;5047844;28;20218;-79
2021/01/01 03:53:49;;;;;;;14.73;8.70;;;4.60;1.00;;;;;;5047658;28;20195;-78
2021/01/01 03:56:20;;;;;;;21.98;8.50;;;4.70;1.00;;;;;;5041487;28;20156;-78
2021/01/01 03:58:56;;;;;;;33.90;10.05;;;4.60;1.00;;;;;;5051620;28;20583;-78
2021/01/01 04:02:07;;;;;;;17.38;8.65;;;4.60;1.00;;;;;;5040792;28;20705;-78
2021/01/01 04:04:38;;;;;;;25.52;9.32;;;4.70;1.00;;;;;;5034658;28;20164;-78
2021/01/01 04:07:08;;;;;;;20.13;8.77;;;4.60;1.00;;;;;;5034554;28;20169;-78
2021/01/01 04:09:38;;;;;;;17.00;7.20;;;4.60;1.00;;;;;;5042624;28;20170;-77
2021/01/01 04:15:26;;;;;;;17.10;8.23;;;4.70;1.00;;;;;;5034639;28;20171;-78
2021/01/01 04:18:08;;;;;;;19.75;8.23;;;4.70;1.00;;;;;;5034607;28;20615;-78
2021/01/01 04:20:34;;;;;;;14.63;7.50;;;4.70;1.00;;;;;;5034533;28;20167;-78
2021/01/01 04:23:02;;;;;;;18.90;9.10;;;4.70;1.00;;;;;;5034235;28;20164;-75
2021/01/01 04:26:07;;;;;;;16.45;8.00;;;4.70;1.00;;;;;;5048401;28;20171;-75
2021/01/01 04:28:33;;;;;;;18.75;7.93;;;4.80;1.00;;;;;;5040078;28;20226;-74
2021/01/01 04:31:02;;;;;;;11.63;7.03;;;4.70;1.00;;;;;;5039379;28;20207;-75
2021/01/01 04:33:32;;;;;;;17.20;8.30;;;4.70;1.00;;;;;;5048415;28;20274;-75
2021/01/01 04:35:58;;;;;;;16.92;8.38;;;4.70;1.00;;;;;;5051812;28;20176;-74
2021/01/01 04:38:32;;;;;;;16.23;7.50;;;4.70;1.00;;;;;;5052560;28;20159;-74
2021/01/01 04:41:09;;;;;;;17.13;7.88;;;4.70;1.00;;;;;;5033037;28;20174;-75
2021/01/01 04:43:36;;;;;;;21.10;8.98;;;4.70;1.00;;;;;;5035221;28;20190;-75
2021/01/01 04:46:03;;;;;;;22.70;8.93;;;4.70;1.00;;;;;;5036697;28;20179;-74
2021/01/01 04:48:29;;;;;;;22.40;8.90;;;4.80;1.00;;;;;;5035852;28;20184;-74
2021/01/01 04:50:55;;;;;;;19.65;8.85;;;4.70;1.00;;;;;;5049532;28;20192;-74
2021/01/01 04:53:30;;;;;;;19.92;8.60;;;4.70;1.00;;;;;;5050801;28;20185;-75
2021/01/01 04:56:09;;;;;;;27.95;8.60;;;4.70;1.00;;;;;;5040146;28;20217;-75
2021/01/01 04:58:35;;;;;;;24.60;8.88;;;4.70;1.00;;;;;;5053944;28;20209;-74
2021/01/01 05:01:03;;;;;;;18.60;7.10;;;4.70;1.00;;;;;;5052302;28;20180;-75
2021/01/01 05:03:29;;;;;;;16.30;8.10;;;4.70;1.00;;;;;;5033721;28;20655;-75
2021/01/01 05:05:56;;;;;;;16.70;7.27;;;4.70;1.00;;;;;;5035943;28;20187;-75
2021/01/01 05:08:22;;;;;;;20.50;8.88;;;4.70;1.00;;;;;;5053875;28;20398;-75
2021/01/01 05:10:56;;;;;;;20.27;7.63;;;4.70;1.00;;;;;;5052548;28;20203;-74
2021/01/01 05:13:38;;;;;;;16.25;8.63;;;4.70;1.00;;;;;;5047410;28;20631;-74
2021/01/01 05:16:16;;;;;;;18.10;8.15;;;4.70;1.00;;;;;;5032355;28;20168;-74
2021/01/01 05:18:42;;;;;;;15.88;7.80;;;4.70;1.00;;;;;;5033908;28;20175;-74
2021/01/01 05:21:09;;;;;;;18.90;7.10;;;;;;;;;;5052240;28;20635;-74
2021/01/01 05:23:51;;;;;;;16.58;7.20;;;4.70;1.00;;;;;;5056246;28;20862;-77
2021/01/01 05:26:18;;;;;;;15.25;7.85;;;4.70;1.00;;;;;;5050703;28;20226;-75
2021/01/01 05:28:50;;;;;;;15.73;8.40;;;4.70;1.00;;;;;;5037002;28;20202;-75
2021/01/01 05:31:29;;;;;;;21.48;8.35;;;4.70;1.00;;;;;;5047781;28;20203;-74
2021/01/01 05:34:01;;;;;;;19.58;8.15;;;4.70;1.00;;;;;;5055861;28;20282;-74
2021/01/01 05:36:44;;;;;;;22.35;7.72;;;4.60;1.00;;;;;;5054896;28;20176;-74
2021/01/01 05:39:43;;;;;;;18.58;7.70;;;4.60;1.00;;;;;;5049635;28;20722;-78
2021/01/01 05:42:38;;;;;;;16.50;7.50;;;4.60;1.00;;;;;;5037336;28;20197;-78
2021/01/01 05:45:21;;;;;;;14.80;6.93;;;4.60;1.00;;;;;;5047570;28;20188;-78
2021/01/01 05:48:14;;;;;;;18.83;7.13;;;4.50;1.00;;;;;;5050167;28;20258;-79
2021/01/01 05:51:05;;;;;;;10.68;6.63;;;4.40;1.00;;;;;;5056065;28;20199;-78
2021/01/01 05:53:30;;;;;;;15.27;6.35;;;4.40;1.00;;;;;;5037050;28;20161;-78
2021/01/01 05:56:07;;;;;;;17.00;6.70;;;4.40;1.00;;;;;;5044019;28;20199;-75
2021/01/01 05:58:51;;;;;;;16.20;6.72;;;4.40;1.00;;;;;;5035884;28;20586;-75
2021/01/01 06:01:20;;;;;;;15.25;7.03;;;4.40;1.00;;;;;;5037017;28;20188;-74
2021/01/01 06:03:50;;;;;;;25.02;7.40;;;4.30;1.00;;;;;;5037036;28;20259;-74
2021/01/01 06:06:18;;;;;;;17.98;6.65;;;4.30;1.00;;;;;;5037089;28;20160;-75
2021/01/01 06:08:52;;;;;;;19.55;7.05;;;4.30;1.00;;;;;;5052343;28;20175;-74
2021/01/01 06:11:29;;;;;;;14.85;6.78;;;4.30;1.00;;;;;;5054891;28;20290;-78
2021/01/01 06:13:58;;;;;;;20.33;7.88;;;4.30;1.00;;;;;;5046643;28;20226;-78
2021/01/01 06:16:29;;;;;;;17.85;8.20;;;4.30;1.00;;;;;;5053023;28;20208;-78
2021/01/01 06:18:56;;;;;;;15.70;6.75;;;4.30;1.00;;;;;;5036779;28;20149;-78
2021/01/01 06:21:51;;;;;;;19.50;6.80;;;4.30;1.00;;;;;;5044545;28;20192;-78
2021/01/01 06:24:21;;;;;;;15.55;7.05;;;4.30;1.00;;;;;;5034523;28;20185;-78
2021/01/01 06:27:08;;;;;;;20.77;6.72;;;4.20;1.00;;;;;;5036454;28;20172;-78
2021/01/01 06:29:36;;;;;;;13.90;6.68;;;4.30;1.00;;;;;;5036216;28;20177;-78
2021/01/01 06:32:09;;;;;;;12.70;6.13;;;4.30;1.00;;;;;;5038864;28;20231;-78
2021/01/01 06:34:38;;;;;;;26.65;7.15;;;4.30;1.00;;;;;;5041207;28;20185;-78
2021/01/01 06:37:28;;;;;;;15.88;7.30;;;4.20;1.00;;;;;;5046464;28;20168;-78
2021/01/01 06:40:40;;;;;;;14.02;6.40;;;6.00;1.00;;;;;;5055795;28;20594;-78
2021/01/01 06:43:20;;;;;;;14.60;6.68;;;4.10;1.00;;;;;;5049646;28;20614;-78
2021/01/01 06:46:14;;;;;;;19.67;7.28;;;4.10;1.00;;;;;;5048136;28;20199;-78
2021/01/01 06:49:29;;;;;;;13.10;6.25;;;4.10;1.00;;;;;;5054589;28;20270;-78
2021/01/01 06:52:14;;;;;;;13.18;5.85;;;4.10;1.00;;;;;;5055859;28;20237;-78
2021/01/01 06:54:59;;;;;;;13.45;6.65;;;4.10;1.00;;;;;;5050991;28;20187;-74
2021/01/01 06:57:29;;;;;;;13.15;6.45;;;4.10;1.00;;;;;;5043663;28;20192;-75
2021/01/01 07:00:08;;;;;;;10.10;5.78;;;4.20;1.00;;;;;;5056397;28;20259;-75
2021/01/01 07:02:34;;;;;;;17.25;6.85;;;4.20;1.00;;;;;;5055764;28;20237;-75
2021/01/01 07:05:24;;;;;;;15.10;6.60;;;4.30;1.00;;;;;;5051618;28;20176;-74
2021/01/01 07:07:50;;;;;;;12.70;6.40;;;4.30;1.00;;;;;;5036082;28;20165;-75
2021/01/01 07:14:05;;;;;;;13.25;6.05;;;4.30;1.00;;;;;;5055242;28;20398;-78
2021/01/01 07:17:25;;;;;;;14.20;6.30;;;4.30;1.00;;;;;;5055315;28;20182;-78
2021/01/01 07:19:51;;;;;;;12.50;6.35;;;4.40;1.00;;;;;;5053977;28;20649;-78
2021/01/01 07:22:56;;;;;;;14.00;6.60;;;4.40;1.00;;;;;;5035319;28;20184;-78
2021/01/01 07:25:32;;;;;;;24.63;6.55;;;4.40;1.00;;;;;;5036516;28;20181;-78
2021/01/01 07:28:16;;;;;;;14.88;6.40;;;4.40;1.00;;;;;;5035360;28;20222;-78
2021/01/01 07:31:02;;;;;;;12.25;6.47;;;4.40;1.00;;;;;;5037630;28;20207;-78
2021/01/01 07:33:32;;;;;;;20.77;7.80;;;4.40;1.00;;;;;;5035050;28;20167;-78
2021/01/01 07:36:06;;;;;;;16.23;6.85;;;4.40;1.00;;;;;;5034978;28;20176;-78
2021/01/01 07:38:34;;;;;;;17.90;7.05;;;4.50;1.00;;;;;;5035163;28;20189;-78
2021/01/01 07:41:00;;;;;;;14.88;6.45;;;4.50;1.00;;;;;;5040215;28;20179;-74
2021/01/01 07:43:26;;;;;;;18.60;8.05;;;4.50;1.00;;;;;;5046235;28;20191;-74
2021/01/01 07:46:04;;;;;;;23.20;7.25;;;4.60;1.00;;;;;;5045907;28;20164;-75
2021/01/01 07:48:31;;;;;;;19.20;7.32;;;4.50;1.00;;;;;;5042372;28;20176;-75
2021/01/01 07:51:08;;;;;;;15.18;7.05;;;4.60;1.00;;;;;;5037447;28;20207;-75
2021/01/01 07:53:35;;;;;;;18.13;7.07;;;4.60;1.00;;;;;;5041851;28;20264;-74
2021/01/01 07:56:20;;;;;;;19.55;8.55;;;4.60;1.00;;;;;;5039887;28;20163;-78
2021/01/01 07:58:47;;;;;;;23.17;7.88;;;4.60;1.00;;;;;;5048611;28;20176;-78
2021/01/01 08:01:13;;;;;;;19.33;6.95;;;4.60;1.00;;;;;;5049817;28;20166;-78
2021/01/01 08:03:40;;;;;;;17.03;7.07;;;4.70;1.00;;;;;;5054589;28;20168;-79
2021/01/01 08:06:32;;;;;;;23.33;7.75;;;4.80;1.00;;;;;;5054423;28;20305;-78
2021/01/01 08:09:26;;;;;;;13.73;6.97;;;4.80;1.00;;;;;;5036376;28;20177;-78
2021/01/01 08:12:11;;;;;;;15.48;7.15;;;4.80;1.00;;;;;;5033614;28;20195;-74
2021/01/01 08:14:37;;;;;;;17.10;7.20;;;4.90;1.00;;;;;;5034630;28;20165;-74
2021/01/01 08:17:29;;;;;;;25.07;8.37;;;4.90;1.00;;;;;;5043215;28;20245;-74
2021/01/01 08:19:56;;;;;;;19.15;7.00;;;5.00;1.00;;;;;;5054590;28;20916;-74
2021/01/01 08:22:29;;;;;;;18.23;7.50;;;5.00;1.00;;;;;;5034497;28;20650;-75
2021/01/01 08:24:56;;;;;;;14.13;7.03;;;5.00;1.00;;;;;;5034453;28;20169;-75
2021/01/01 08:27:56;;;;;;;20.45;8.57;;;5.10;1.00;;;;;;5044960;28;20176;-78
2021/01/01 08:31:08;;;;;;;15.40;7.50;;;5.10;1.00;;;;;;5046238;28;20196;-78
2021/01/01 08:33:41;;;;;;;17.92;7.53;;;5.20;1.00;;;;;;5034477;28;20180;-78
2021/01/01 08:36:13;;;;;;;15.52;7.50;;;5.20;1.00;;;;;;5033084;28;20187;-78
2021/01/01 08:39:05;;;;;;;22.52;8.48;;;5.20;1.00;;;;;;5033890;28;20176;-78
2021/01/01 08:41:39;;;;;;;13.75;7.40;;;5.30;1.00;;;;;;5034136;28;20204;-75
2021/01/01 08:44:10;;;;;;;21.77;8.35;;;5.30;1.00;;;;;;5048142;28;20676;-75
2021/01/01 08:46:38;;;;;;;17.08;7.53;;;5.30;1.00;;;;;;5053967;28;20172;-74
2021/01/01 08:49:33;;;;;;;16.08;7.53;;;5.30;1.00;;;;;;5038257;28;20701;-74
2021/01/01 08:52:12;;;;;;;17.02;7.07;;;5.40;1.00;;;;;;5036557;28;20228;-75
2021/01/01 08:54:38;;;;;;;15.65;7.05;;;5.40;1.00;;;;;;5030587;28;20181;-74
2021/01/01 08:57:08;;;;;;;16.35;7.97;;;5.40;1.00;;;;;;5038237;28;20168;-78
2021/01/01 09:00:10;;;;;;;19.13;8.57;;;5.40;1.00;;;;;;5034326;28;20541;-78
2021/01/01 09:02:39;;;;;;;17.90;7.45;;;5.40;1.00;;;;;;5030819;28;20468;-78
2021/01/01 09:05:14;;;;;;;22.92;8.93;;;5.40;1.00;;;;;;5027056;28;20751;-78
2021/01/01 09:11:19;;;;;;;15.80;7.97;;;5.50;1.00;;;;;;5012267;28;20212;-75
2021/01/01 09:13:58;;;;;;;17.23;7.55;;;5.50;1.00;;;;;;5025885;28;20176;-74
2021/01/01 09:16:24;;;;;;;18.38;8.02;;;5.50;1.00;;;;;;5014971;28;20184;-75
2021/01/01 09:18:49;;;;;;;17.07;7.87;;;5.50;1.00;;;;;;5013248;28;20176;-75
2021/01/01 09:21:20;;;;;;;22.67;7.83;;;5.50;1.00;;;;;;5018724;28;20415;-79
2021/01/01 09:23:54;;;;;;;26.02;8.68;;;5.50;1.00;;;;;;5014988;28;20673;-72
2021/01/01 09:26:30;;;;;;;19.20;8.15;;;5.50;1.00;;;;;;5018425;28;20192;-73
2021/01/01 09:29:07;;;;;;;14.68;7.40;;;5.50;1.00;;;;;;5023348;28;20176;-75
2021/01/01 09:31:38;;;;;;;21.65;8.23;;;5.50;1.00;;;;;;5023227;28;20196;-75
2021/01/01 09:34:06;;;;;;;21.63;8.02;;;5.50;1.00;;;;;;5030510;28;20184;-75
2021/01/01 09:36:34;;;;;;;18.67;7.43;;;5.60;1.00;;;;;;5041222;28;20175;-74
2021/01/01 09:39:00;;;;;;;21.35;8.27;;;5.60;1.00;;;;;;5048106;28;20275;-74
2021/01/01 09:41:27;;;;;;;18.70;8.50;;;5.70;1.00;;;;;;5048908;28;20674;-74
2021/01/01 09:43:52;;;;;;;21.48;8.48;;;5.80;1.00;;;;;;5050220;28;20913;-74
2021/01/01 09:46:18;;;;;;;22.40;8.40;;;6.00;1.00;;;;;;5039765;28;20181;-73
2021/01/01 09:48:44;;;;;;;15.40;7.80;;;6.10;1.00;;;;;;5032804;28;20323;-73
2021/01/01 09:51:10;;;;;;;17.80;7.60;;;;;;;;;;5040265;28;20215;-73
2021/01/01 09:53:36;;;;;;;20.50;8.10;;;;;;;;;;5032788;28;20161;-73
2021/01/01 09:56:40;;;;;;;14.47;7.03;;;6.30;1.00;;;;;;5037328;28;20416;-74
2021/01/01 09:59:08;;;;;;;19.03;7.90;;;6.40;1.00;;;;;;5037074;28;20496;-74
2021/01/01 10:01:38;;;;;;;22.23;7.40;;;6.40;1.00;;;;;;5035561;28;20769;-74
2021/01/01 10:04:14;;;;;;;15.55;7.28;;;6.30;1.00;;;;;;5041121;28;20919;-74
2021/01/01 10:06:50;;;;;;;14.17;6.63;;;6.30;1.00;;;;;;5046151;28;20255;-74
2021/01/01 10:09:16;;;;;;;12.13;6.40;;;6.30;1.00;;;;;;5053378;28;20842;-74
2021/01/01 10:11:41;;;;;;;12.30;6.33;;;6.30;1.00;;;;;;5057075;28;20473;-77
2021/01/01 10:14:20;;;;;;;14.67;6.77;;;6.30;1.00;;;;;;5046981;28;20234;-78
2021/01/01 10:17:08;;;;;;;11.80;5.80;;;6.30;1.00;;;;;;5036704;28;20620;-78
2021/01/01 10:23:08;;;;;;;17.30;6.43;;;6.40;1.00;;;;;;5047633;28;20477;-78
2021/01/01 10:26:08;;;;;;;16.73;6.43;;;6.50;1.00;;;;;;5039282;28;20406;-78
2021/01/01 10:28:34;;;;;;;12.43;6.37;;;6.70;1.00;;;;;;5040694;28;20545;-74
2021/01/01 10:31:00;;;;;;;12.53;5.77;;;;;;;;;;5036557;28;20553;-74
2021/01/01 10:33:26;;;;;;;10.83;5.77;;;6.90;1.00;;;;;;5036910;28;20511;-73
2021/01/01 10:35:56;;;;;;;11.33;5.60;;;6.90;1.00;;;;;;5050076;28;20407;-76
2021/01/01 10:38:26;;;;;;;12.73;6.33;;;6.90;1.00;;;;;;5055491;28;20275;-74
2021/01/01 10:40:52;;;;;;;11.53;5.87;;;6.80;1.00;;;;;;5053396;28;20789;-73
2021/01/01 10:43:17;;;;;;;12.40;5.73;;;6.90;1.00;;;;;;5055131;28;20422;-73
2021/01/01 10:45:44;;;;;;;11.00;5.57;;;6.90;1.00;;;;;;5054966;28;20168;-73
2021/01/01 10:48:10;;;;;;;10.07;5.10;;;6.90;1.00;;;;;;5055358;28;20167;-73
2021/01/01 10:50:36;;;;;;;12.63;5.33;;;6.80;1.00;;;;;;5039402;28;20477;-73
2021/01/01 10:53:02;;;;;;;13.20;5.50;;;6.80;1.00;;;;;;5035933;28;20168;-73
2021/01/01 10:55:28;;;;;;;10.50;5.57;;;6.80;1.00;;;;;;5036361;28;20212;-74
2021/01/01 10:58:08;;;;;;;10.37;4.90;;;6.80;1.00;;;;;;5036301;28;20388;-77
2021/01/01 11:01:02;;;;;;;10.40;5.63;;;6.70;1.00;;;;;;5045405;28;20497;-78
2021/01/01 11:07:32;;;;;;;11.33;5.10;;;6.50;1.00;;;;;;5039483;28;20394;-79
2021/01/01 11:13:19;;;;;;;9.60;4.97;;;6.40;1.00;;;;;;5035800;28;20514;-72
2021/01/01 12:24:44;;;;;;;7.47;4.88;;;6.30;1.00;;;;;;5051413;28;20417;-73
2021/01/01 12:27:08;;;;;;;7.88;4.40;;;6.30;1.00;;;;;;5054258;28;20215;-74
2021/01/01 12:30:23;;;;;;;7.50;4.53;;;6.30;1.00;;;;;;5054314;28;20187;-79
2021/01/01 12:32:51;;;;;;;7.97;5.27;;;6.30;1.00;;;;;;5032231;28;20285;-79
2021/01/01 12:35:35;;;;;;;11.80;5.55;;;6.20;1.00;;;;;;5031195;28;20415;-78
2021/01/01 12:38:20;;;;;;;8.80;4.53;;;6.20;1.00;;;;;;5031696;28;20188;-79
2021/01/01 12:40:50;;;;;;;10.50;5.10;;;6.10;1.00;;;;;;5031464;28;20419;-78
2021/01/01 12:43:16;;;;;;;10.57;5.53;;;;;;;;;;5032169;28;20555;-74
2021/01/01 12:45:42;;;;;;;9.57;5.20;;;;;;;;;;5015143;28;20176;-73
2021/01/01 12:48:08;;;;;;;11.70;5.03;;;6.10;1.00;;;;;;5032038;28;20946;-74
2021/01/01 12:50:34;;;;;;;12.57;5.57;;;;;;;;;;5031732;28;20474;-74
2021/01/01 12:53:14;;;;;;;8.00;4.90;;;6.10;1.00;;;;;;5031850;28;20164;-74
2021/01/01 12:55:44;;;;;;;9.10;5.27;;;6.20;1.00;;;;;;5015453;28;20458;-74
2021/01/01 12:58:10;;;;;;;8.63;4.47;;;6.10;1.00;;;;;;5032024;28;20938;-74
2021/01/01 13:00:38;;;;;;;8.77;5.03;;;6.10;1.00;;;;;;5031834;28;20430;-75
2021/01/01 13:03:04;;;;;;;9.68;5.03;;;6.10;1.00;;;;;;5027178;28;20606;-73
2021/01/01 13:05:32;;;;;;;13.20;5.70;;;6.10;1.00;;;;;;5030186;28;20184;-74
2021/01/01 13:07:58;;;;;;;10.40;5.37;;;;;;;;;;5031317;28;20427;-73
2021/01/01 13:10:26;;;;;;;10.60;5.47;;;6.20;1.00;;;;;;5053619;28;20939;-74
2021/01/01 13:13:32;;;;;;;9.50;4.50;;;6.20;1.00;;;;;;5053429;28;20527;-74
2021/01/01 13:16:21;;;;;;;7.87;4.67;;;6.20;1.00;;;;;;5053737;28;20386;-80
2021/01/01 13:22:08;;;;;;;7.15;4.50;;;6.00;1.00;;;;;;5033683;28;20767;-78
2021/01/01 13:24:44;;;;;;;9.23;5.10;;;6.00;1.00;;;;;;5040522;28;20172;-78
2021/01/01 13:27:10;;;;;;;7.93;4.35;;;6.00;1.00;;;;;;5049796;28;20190;-78
2021/01/01 13:29:35;;;;;;;6.37;4.47;;;5.90;1.00;;;;;;5039216;28;20192;-75
2021/01/01 13:32:08;;;;;;;6.20;3.90;;;5.90;1.00;;;;;;5050496;28;20246;-76
2021/01/01 13:34:34;;;;;;;9.05;4.63;;;5.90;1.00;;;;;;5049107;28;20188;-72
2021/01/01 13:37:29;;;;;;;6.03;3.73;;;6.00;1.00;;;;;;5033265;28;20156;-74
2021/01/01 13:39:56;;;;;;;8.37;4.30;;;5.90;1.00;;;;;;5038291;28;20808;-75
2021/01/01 13:42:26;;;;;;;7.33;4.50;;;5.90;1.00;;;;;;5045875;28;20410;-74
2021/01/01 13:44:52;;;;;;;7.70;4.65;;;5.90;1.00;;;;;;5037975;28;20403;-74
2021/01/01 13:47:20;;;;;;;12.00;4.97;;;5.90;1.00;;;;;;5037478;28;20164;-74
2021/01/01 13:49:46;;;;;;;6.73;4.30;;;6.00;1.00;;;;;;5037376;28;20616;-74
2021/01/01 13:52:14;;;;;;;9.70;4.33;;;6.00;1.00;;;;;;5035608;28;20464;-73
2021/01/01 13:54:50;;;;;;;8.33;3.93;;;6.00;1.00;;;;;;5037374;28;20171;-73
2021/01/01 13:57:20;;;;;;;11.30;5.37;;;6.00;1.00;;;;;;5037291;28;20843;-73
2021/01/01 13:59:50;;;;;;;8.70;4.25;;;6.10;1.00;;;;;;5037776;28;20425;-74
2021/01/01 14:02:32;;;;;;;6.10;4.07;;;6.10;1.00;;;;;;5038452;28;20218;-73
2021/01/01 14:04:58;;;;;;;8.30;4.87;;;6.10;1.00;;;;;;5036355;28;20430;-73
2021/01/01 14:07:28;;;;;;;9.27;4.43;;;6.10;1.00;;;;;;5036700;28;20414;-73
2021/01/01 14:09:55;;;;;;;7.27;4.80;;;6.10;1.00;;;;;;5044395;28;20429;-75
2021/01/01 14:12:22;;;;;;;8.83;5.00;;;6.10;1.00;;;;;;5056685;28;20438;-75
2021/01/01 14:14:48;;;;;;;8.10;4.77;;;6.10;1.00;;;;;;5054974;28;20866;-75
2021/01/01 14:17:13;;;;;;;6.10;4.20;;;6.10;1.00;;;;;;5052642;28;20491;-75
2021/01/01 14:19:50;;;;;;;6.83;3.80;;;6.00;1.00;;;;;;5036587;28;20419;-75
2021/01/01 14:22:16;;;;;;;7.07;3.90;;;6.00;1.00;;;;;;5050318;28;20174;-75
2021/01/01 14:24:42;;;;;;;7.10;4.23;;;6.00;1.00;;;;;;5047070;28;20414;-75
2021/01/01 14:27:07;;;;;;;9.10;4.50;;;6.00;1.00;;;;;;5050321;28;20216;-74
2021/01/01 14:29:44;;;;;;;9.53;4.83;;;5.90;1.00;;;;;;5056912;28;20183;-74
2021/01/01 14:32:20;;;;;;;9.07;5.10;;;5.90;1.00;;;;;;5039006;28;20200;-75
2021/01/01 14:34:52;;;;;;;8.75;4.80;;;5.90;1.00;;;;;;5037279;28;20922;-74
2021/01/01 14:37:32;;;;;;;9.00;5.38;;;5.90;1.00;;;;;;5055750;28;20196;-75
2021/01/01 14:39:58;;;;;;;8.38;4.65;;;5.90;1.00;;;;;;5036647;28;20223;-73
2021/01/01 14:42:24;;;;;;;7.73;4.67;;;5.90;1.00;;;;;;5036628;28;20172;-74
2021/01/01 14:44:49;;;;;;;7.60;4.60;;;5.90;1.00;;;;;;5056587;28;20242;-74
2021/01/01 14:47:20;;;;;;;8.43;4.63;;;5.80;1.00;;;;;;5036306;28;20169;-74
2021/01/01 14:49:46;;;;;;;7.55;4.45;;;5.80;1.00;;;;;;5036423;28;20200;-73
2021/01/01 14:52:12;;;;;;;6.80;3.83;;;5.80;1.00;;;;;;5050073;28;20701;-74
2021/01/01 14:54:37;;;;;;;9.67;4.77;;;5.80;1.00;;;;;;5056099;28;20154;-75
2021/01/01 14:57:08;;;;;;;8.30;5.73;;;5.70;1.00;;;;;;5056094;28;20187;-75
2021/01/01 15:00:20;;;;;;;8.05;4.68;;;5.70;1.00;;;;;;5050324;28;20177;-79
2021/01/01 15:03:32;;;;;;;9.10;4.97;;;5.80;1.00;;;;;;5035878;28;20232;-79
2021/01/01 15:06:32;;;;;;;7.53;4.25;;;5.70;1.00;;;;;;5046418;28;20448;-80
2021/01/01 15:09:02;;;;;;;15.80;5.10;;;5.70;1.00;;;;;;5054474;28;20214;-80
2021/01/01 15:11:32;;;;;;;9.95;4.50;;;5.70;1.00;;;;;;5055360;28;20552;-79
2021/01/01 15:14:02;;;;;;;6.53;4.55;;;5.70;1.00;;;;;;5048054;28;20251;-77
2021/01/01 15:16:47;;;;;;;6.63;4.43;;;5.70;1.00;;;;;;5035636;28;20176;-76
2021/01/01 15:19:15;;;;;;;10.07;4.93;;;5.70;1.00;;;;;;5036469;28;20157;-79
2021/01/01 15:22:08;;;;;;;8.30;5.40;;;5.70;1.00;;;;;;5055446;28;20171;-79
2021/01/01 15:25:14;;;;;;;6.55;4.35;;;5.70;1.00;;;;;;5055560;28;20553;-79